CheckWX is a tool to help pilots better visualize weather data.  It is not intended as a substitute for an official pre-flight weather briefing.

03:23:34 UTC

KMKG METAR
Muskegon County Airport
Muskegon, Michigan, USA
Current

29 mins ago

KMKG 240255Z 19006KT 10SM CLR 02/M07 A3021 RMK AO2 SLP238 LAST T00171067 58010
Observed
Mar-24 @ 02:55 UTC
Wind
  • 190° at 6 KTS
Visibility
10 SM
Flight Rules
VFR
Cloud Levels
  • Clear skies
Temperature
C / 36°F
Dewpoint
-7°C / 19°F
Humidity
52%
Altimeter
30.21" Hg
Pressure
1023.8 hPa
Previous

1 hour ago

KMKG 240155Z 18003KT 10SM CLR 00/M08 A3023 RMK AO2 SLP245 T00001078
Observed
Mar-24 @ 01:55 UTC
Wind
  • 180° at 3 KTS
Visibility
10 SM
Flight Rules
VFR
Cloud Levels
  • Clear skies
Temperature
C / 32°F
Dewpoint
-8°C / 18°F
Humidity
55%
Altimeter
30.23" Hg
Pressure
1024.5 hPa
Previous

2 hours ago

KMKG 240055Z 17004KT 10SM FEW200 01/M08 A3023 RMK AO2 SLP245 T00111083
Observed
Mar-24 @ 00:55 UTC
Wind
  • 170° at 4 KTS
Visibility
10 SM
Flight Rules
VFR
Cloud Levels
  • Few at 20,000' AGL
Temperature
C / 34°F
Dewpoint
-8°C / 18°F
Humidity
51%
Altimeter
30.23" Hg
Pressure
1024.5 hPa